Time;durP1;ratioP1;P1;durP2;ratioP2;P2;SDS_P1;SDS_P2;PMS_P1;PMS_P2;Temp;Humidity;BMP_temperature;BMP_pressure;BME280_temperature;BME280_humidity;BME280_pressure;Samples;Min_cycle;Max_cycle;Signal;HPM_P1;HPM_P2
2021/12/29 00:00:11;;;;;;;24.23;19.40;;;5.70;93.30;;;;;;5116434;28;20024;-47
2021/12/29 00:02:38;;;;;;;27.20;20.23;;;5.70;93.30;;;;;;5121299;27;20080;-50
2021/12/29 00:05:06;;;;;;;23.25;19.73;;;5.70;93.20;;;;;;5127694;27;20113;-45
2021/12/29 00:07:33;;;;;;;26.48;20.35;;;5.70;93.30;;;;;;5113444;28;20464;-46
2021/12/29 00:10:01;;;;;;;24.10;19.52;;;5.70;93.30;;;;;;5098208;28;20039;-45
2021/12/29 00:12:28;;;;;;;24.38;20.60;;;5.80;93.30;;;;;;5128284;27;20382;-49
2021/12/29 00:14:59;;;;;;;23.58;18.95;;;5.80;93.30;;;;;;5131584;27;20028;-48
2021/12/29 00:17:25;;;;;;;24.05;18.42;;;5.80;93.30;;;;;;5122743;27;20051;-47
2021/12/29 00:19:54;;;;;;;23.83;18.88;;;5.80;93.30;;;;;;5089015;28;20118;-48
2021/12/29 00:22:24;;;;;;;23.65;17.05;;;5.80;93.30;;;;;;5127942;27;20160;-50
2021/12/29 00:24:49;;;;;;;;;;;5.80;93.20;;;;;;5135256;27;20042;-47
2021/12/29 00:27:16;;;;;;;21.73;15.57;;;5.70;93.20;;;;;;5133480;27;19919;-46
2021/12/29 00:29:43;;;;;;;19.92;16.27;;;5.80;93.20;;;;;;5115039;28;20035;-46
2021/12/29 00:32:10;;;;;;;19.08;15.20;;;5.80;93.20;;;;;;5115897;28;20059;-46
2021/12/29 00:34:37;;;;;;;18.88;15.15;;;5.80;93.20;;;;;;5123470;27;20035;-45
2021/12/29 00:37:03;;;;;;;18.70;14.75;;;5.80;93.20;;;;;;5115825;27;20024;-46
2021/12/29 00:39:30;;;;;;;20.38;15.00;;;5.80;93.20;;;;;;5135957;27;20038;-46
2021/12/29 00:41:56;;;;;;;18.67;16.08;;;5.80;93.10;;;;;;5135265;27;20034;-51
2021/12/29 00:44:23;;;;;;;17.63;14.57;;;5.80;93.20;;;;;;5117550;27;20719;-48
2021/12/29 00:46:53;;;;;;;19.80;15.88;;;5.80;93.10;;;;;;5114483;27;20043;-50
2021/12/29 00:49:21;;;;;;;24.20;16.63;;;5.80;93.20;;;;;;5135528;27;20106;-47
2021/12/29 00:51:49;;;;;;;23.67;16.80;;;5.80;93.10;;;;;;5117443;27;20019;-48
2021/12/29 00:54:19;;;;;;;26.33;17.27;;;5.80;93.10;;;;;;5099234;28;20027;-46
2021/12/29 00:56:46;;;;;;;22.38;17.48;;;5.80;93.10;;;;;;5121915;27;20027;-44
2021/12/29 00:59:12;;;;;;;20.27;15.63;;;5.80;93.10;;;;;;5098197;28;20338;-49
2021/12/29 01:01:39;;;;;;;24.27;16.83;;;5.80;93.10;;;;;;5114738;28;20035;-47
2021/12/29 01:04:06;;;;;;;23.05;17.42;;;5.80;93.10;;;;;;5102305;28;20033;-46
2021/12/29 01:06:33;;;;;;;25.88;18.55;;;5.80;93.10;;;;;;5127987;27;20080;-47
2021/12/29 01:09:02;;;;;;;23.95;16.27;;;5.80;93.00;;;;;;5117791;27;20353;-48
2021/12/29 01:11:33;;;;;;;24.60;16.85;;;5.80;93.10;;;;;;5102602;28;20349;-49
2021/12/29 01:13:59;;;;;;;22.10;15.85;;;5.80;93.10;;;;;;5131036;27;20065;-48
2021/12/29 01:19:00;;;;;;;22.15;15.40;;;5.80;93.10;;;;;;5117727;27;20104;-50
2021/12/29 01:21:28;;;;;;;20.20;15.27;;;5.80;93.10;;;;;;5129963;27;20079;-50
2021/12/29 01:23:55;;;;;;;19.27;14.88;;;5.80;93.10;;;;;;5135225;27;20729;-52
2021/12/29 01:26:22;;;;;;;23.88;15.93;;;5.80;93.00;;;;;;5134646;27;20117;-51
2021/12/29 01:28:54;;;;;;;20.20;15.98;;;5.80;93.00;;;;;;5134769;27;20110;-53
2021/12/29 01:31:20;;;;;;;23.17;17.50;;;5.80;93.00;;;;;;5102489;28;20409;-54
2021/12/29 01:33:47;;;;;;;25.08;17.75;;;5.80;93.00;;;;;;5118522;27;20057;-57
2021/12/29 01:36:14;;;;;;;26.35;17.60;;;5.80;93.00;;;;;;5134095;27;20027;-57
2021/12/29 01:38:41;;;;;;;34.08;19.60;;;5.80;93.00;;;;;;5123195;27;20036;-58
2021/12/29 01:41:08;;;;;;;34.38;21.27;;;5.80;93.00;;;;;;5133201;27;20475;-61
2021/12/29 01:43:35;;;;;;;57.03;32.13;;;5.80;93.00;;;;;;5123992;27;20514;-59
2021/12/29 01:46:02;;;;;;;65.00;36.90;;;5.80;93.00;;;;;;5114546;28;20063;-61
2021/12/29 01:48:29;;;;;;;51.45;30.85;;;5.70;92.90;;;;;;5121736;27;20034;-61
2021/12/29 01:50:59;;;;;;;44.78;28.80;;;5.70;92.90;;;;;;5133028;27;20043;-61
2021/12/29 01:53:29;;;;;;;36.83;22.92;;;5.70;92.90;;;;;;5134234;27;20324;-61
2021/12/29 01:55:57;;;;;;;32.65;21.05;;;5.70;92.90;;;;;;5134643;27;20023;-61
2021/12/29 01:58:25;;;;;;;29.27;19.17;;;5.70;92.90;;;;;;5107150;27;20456;-60
2021/12/29 02:00:52;;;;;;;26.83;17.95;;;5.70;92.90;;;;;;5120083;27;20074;-58
2021/12/29 02:03:20;;;;;;;42.22;18.30;;;5.70;92.90;;;;;;5123570;27;20035;-60
2021/12/29 02:05:50;;;;;;;20.25;15.77;;;5.70;92.90;;;;;;5100716;28;20087;-58
2021/12/29 02:08:24;;;;;;;;;;;5.70;92.90;;;;;;5130267;27;20478;-60
2021/12/29 02:10:56;;;;;;;23.77;16.83;;;5.70;92.90;;;;;;5113558;28;19927;-64
2021/12/29 02:13:23;;;;;;;23.27;16.65;;;5.70;93.00;;;;;;5118938;27;20032;-57
2021/12/29 02:15:50;;;;;;;24.20;19.70;;;5.70;92.90;;;;;;5126730;27;20019;-59
2021/12/29 02:18:19;;;;;;;26.38;19.98;;;5.70;92.90;;;;;;5134219;27;20462;-58
2021/12/29 02:20:49;;;;;;;21.08;15.68;;;5.70;92.90;;;;;;5129358;27;20042;-59
2021/12/29 02:23:24;;;;;;;21.55;16.45;;;5.70;92.90;;;;;;5134303;28;20474;-57
2021/12/29 02:25:52;;;;;;;21.80;14.90;;;5.70;92.90;;;;;;5134050;28;20114;-56
2021/12/29 02:28:25;;;;;;;17.63;14.75;;;5.70;92.90;;;;;;5131831;28;20102;-58
2021/12/29 02:30:53;;;;;;;23.27;15.38;;;5.70;92.90;;;;;;5133827;28;20019;-58
2021/12/29 02:33:19;;;;;;;19.10;15.20;;;5.70;92.90;;;;;;5131883;28;20023;-57
2021/12/29 02:35:47;;;;;;;20.75;14.93;;;5.70;92.90;;;;;;5102624;28;20050;-57
2021/12/29 02:38:24;;;;;;;19.05;15.13;;;5.70;93.00;;;;;;5113558;28;20607;-56
2021/12/29 02:40:53;;;;;;;18.65;14.48;;;5.70;92.90;;;;;;5119551;28;20065;-54
2021/12/29 02:43:21;;;;;;;20.17;14.95;;;5.70;92.90;;;;;;5088484;28;20036;-53
2021/12/29 02:45:51;;;;;;;19.35;14.30;;;5.70;93.00;;;;;;5074006;28;20032;-55
2021/12/29 02:48:18;;;;;;;18.48;15.48;;;5.70;93.00;;;;;;5092449;28;20020;-53
2021/12/29 02:50:45;;;;;;;19.25;14.77;;;5.70;93.00;;;;;;5073624;28;20357;-52
2021/12/29 02:53:14;;;;;;;18.92;14.27;;;5.70;93.00;;;;;;5054929;28;20404;-55
2021/12/29 02:55:41;;;;;;;22.90;14.93;;;5.70;93.00;;;;;;5087502;28;20029;-56
2021/12/29 02:58:08;;;;;;;19.77;15.25;;;5.60;92.90;;;;;;5081417;28;20069;-50
2021/12/29 03:00:36;;;;;;;18.25;14.10;;;5.60;93.00;;;;;;5091232;28;20032;-53
2021/12/29 03:03:16;;;;;;;20.23;16.58;;;5.60;93.00;;;;;;5096155;28;20031;-50
2021/12/29 03:05:44;;;;;;;17.85;14.50;;;5.60;93.00;;;;;;5070039;28;20365;-55
2021/12/29 03:08:12;;;;;;;21.50;16.42;;;5.60;93.00;;;;;;5087215;28;20037;-54
2021/12/29 03:10:40;;;;;;;21.55;18.27;;;5.60;93.00;;;;;;5076826;28;20106;-49
2021/12/29 03:13:07;;;;;;;21.50;16.13;;;5.50;93.00;;;;;;5087104;28;20070;-52
2021/12/29 03:15:36;;;;;;;22.63;16.60;;;5.50;93.00;;;;;;5077823;28;20028;-49
2021/12/29 03:18:05;;;;;;;22.58;16.02;;;5.50;93.00;;;;;;5089024;28;20368;-50
2021/12/29 03:20:33;;;;;;;26.42;15.55;;;5.50;93.10;;;;;;5117355;28;20039;-52
2021/12/29 03:23:00;;;;;;;22.83;15.50;;;5.50;93.10;;;;;;5096107;28;20373;-52
2021/12/29 03:25:27;;;;;;;19.70;15.95;;;5.50;93.10;;;;;;5078733;28;20034;-54
2021/12/29 03:28:00;;;;;;;22.80;15.63;;;5.50;93.10;;;;;;5088359;28;20040;-56
2021/12/29 03:30:33;;;;;;;18.23;14.30;;;5.50;93.10;;;;;;5059279;28;20035;-58
2021/12/29 03:33:04;;;;;;;16.92;13.15;;;5.40;93.00;;;;;;5066321;28;20635;-59
2021/12/29 03:35:45;;;;;;;17.38;15.32;;;5.50;93.10;;;;;;5088490;28;20024;-60
2021/12/29 03:38:21;;;;;;;20.20;14.73;;;5.50;93.10;;;;;;5068368;28;20024;-60
2021/12/29 03:40:51;;;;;;;17.40;14.18;;;5.40;93.10;;;;;;5091359;28;20046;-60
2021/12/29 03:43:19;;;;;;;17.75;14.82;;;5.40;93.20;;;;;;5095266;28;20047;-60
2021/12/29 03:45:51;;;;;;;17.30;14.25;;;5.40;93.20;;;;;;5115315;28;20015;-58
2021/12/29 03:48:20;;;;;;;17.15;13.05;;;5.40;93.20;;;;;;5107014;28;20444;-59
2021/12/29 03:50:48;;;;;;;16.17;13.02;;;5.40;93.20;;;;;;5114079;28;20119;-59
2021/12/29 03:53:15;;;;;;;16.50;12.52;;;5.40;93.20;;;;;;5088398;28;20084;-56
2021/12/29 03:55:43;;;;;;;17.35;14.02;;;5.50;93.30;;;;;;5098005;28;20471;-58
2021/12/29 03:58:13;;;;;;;16.60;13.23;;;5.50;93.30;;;;;;5087154;28;20028;-57
2021/12/29 04:00:39;;;;;;;16.90;13.18;;;5.50;93.20;;;;;;5095734;28;20056;-54
2021/12/29 04:03:07;;;;;;;17.83;13.00;;;5.50;93.30;;;;;;5105604;28;20036;-55
2021/12/29 04:05:34;;;;;;;16.70;13.93;;;5.50;93.20;;;;;;5102695;28;20098;-53
2021/12/29 04:08:04;;;;;;;18.63;14.00;;;5.50;93.20;;;;;;5085191;28;20071;-53
2021/12/29 04:10:30;;;;;;;20.52;15.27;;;5.40;93.20;;;;;;5115861;28;20024;-53
2021/12/29 04:12:57;;;;;;;20.33;14.15;;;5.50;93.20;;;;;;5085913;28;20043;-53
2021/12/29 04:15:29;;;;;;;22.35;15.23;;;5.50;93.20;;;;;;5114352;28;20038;-54
2021/12/29 04:17:58;;;;;;;19.52;14.40;;;5.50;93.20;;;;;;5112034;28;20114;-55
2021/12/29 04:23:14;;;;;;;24.05;15.63;;;5.50;93.20;;;;;;5101379;27;20222;-58
2021/12/29 04:25:45;;;;;;;23.67;15.68;;;5.40;93.20;;;;;;5131370;27;20034;-57
2021/12/29 04:28:20;;;;;;;25.40;15.77;;;5.40;93.20;;;;;;5110722;28;20015;-58
2021/12/29 04:30:49;;;;;;;25.70;16.60;;;5.40;93.20;;;;;;5111121;28;20326;-59
2021/12/29 04:33:18;;;;;;;22.90;16.13;;;5.40;93.20;;;;;;5096321;28;20030;-59
2021/12/29 04:35:49;;;;;;;26.83;16.92;;;5.50;93.30;;;;;;5084186;28;20046;-57
2021/12/29 04:38:16;;;;;;;23.27;15.15;;;5.40;93.20;;;;;;5115460;28;20028;-60
2021/12/29 04:40:42;;;;;;;26.35;17.63;;;5.40;93.20;;;;;;5111959;27;20027;-59
2021/12/29 04:43:09;;;;;;;22.77;15.10;;;5.40;93.20;;;;;;5097147;27;20192;-60
2021/12/29 04:45:36;;;;;;;23.48;15.63;;;5.40;93.20;;;;;;5089584;28;20040;-59
2021/12/29 04:48:10;;;;;;;23.30;15.65;;;5.40;93.30;;;;;;5115304;28;20024;-59
2021/12/29 04:50:39;;;;;;;23.77;15.07;;;5.40;93.30;;;;;;5095731;28;20032;-59
2021/12/29 04:53:08;;;;;;;22.33;13.95;;;5.40;93.20;;;;;;5100513;28;20027;-58
2021/12/29 04:55:36;;;;;;;26.10;15.70;;;5.40;93.30;;;;;;5109125;28;20118;-58
2021/12/29 04:58:03;;;;;;;24.15;14.30;;;5.40;93.40;;;;;;5103916;28;20048;-58
2021/12/29 05:00:32;;;;;;;21.30;15.32;;;5.40;93.40;;;;;;5094942;28;20353;-58
2021/12/29 05:03:01;;;;;;;23.63;15.63;;;5.50;93.40;;;;;;5103358;28;20109;-59
2021/12/29 05:10:40;;;;;;;22.55;14.30;;;5.40;93.40;;;;;;5108378;28;20100;-56
2021/12/29 05:13:07;;;;;;;24.95;15.63;;;5.40;93.40;;;;;;5104020;28;20044;-58
2021/12/29 05:15:34;;;;;;;24.00;15.10;;;5.40;93.40;;;;;;5113279;28;20028;-60
2021/12/29 05:18:03;;;;;;;24.83;15.60;;;5.40;93.40;;;;;;5116539;27;20073;-60
2021/12/29 05:20:31;;;;;;;22.00;14.87;;;5.40;93.30;;;;;;5135076;27;20057;-59
2021/12/29 05:22:59;;;;;;;21.23;13.60;;;5.40;93.30;;;;;;5113195;27;20060;-58
2021/12/29 05:25:27;;;;;;;18.85;12.27;;;5.40;93.30;;;;;;5076220;28;20027;-53
2021/12/29 05:27:57;;;;;;;21.05;13.23;;;5.40;93.40;;;;;;5085465;28;20035;-58
2021/12/29 05:30:24;;;;;;;20.38;12.00;;;5.40;93.30;;;;;;5114268;28;20097;-58
2021/12/29 05:32:51;;;;;;;26.50;12.02;;;5.30;93.30;;;;;;5109650;28;20027;-58
2021/12/29 05:35:18;;;;;;;17.98;10.02;;;5.20;93.30;;;;;;5105122;28;20094;-55
2021/12/29 05:37:45;;;;;;;15.73;9.73;;;5.20;93.20;;;;;;5114015;28;20035;-54
2021/12/29 05:40:12;;;;;;;16.48;8.73;;;5.20;93.20;;;;;;5115015;27;20027;-56
2021/12/29 05:42:38;;;;;;;10.23;8.15;;;5.10;93.10;;;;;;5107970;28;20060;-55
2021/12/29 05:45:09;;;;;;;13.35;8.45;;;5.20;93.20;;;;;;5102259;28;20409;-55
2021/12/29 05:47:36;;;;;;;11.18;7.30;;;5.10;93.10;;;;;;5111059;28;20054;-57
2021/12/29 05:50:05;;;;;;;15.00;8.32;;;5.10;93.10;;;;;;5093445;28;20115;-56
2021/12/29 05:52:32;;;;;;;13.48;7.22;;;5.00;92.90;;;;;;5112400;28;20023;-57
2021/12/29 05:54:58;;;;;;;15.98;8.50;;;5.00;93.00;;;;;;5095786;28;20023;-56
2021/12/29 05:57:25;;;;;;;11.57;8.00;;;5.00;92.90;;;;;;5109378;28;20046;-54
2021/12/29 05:59:52;;;;;;;14.02;8.13;;;5.00;93.10;;;;;;5113532;28;20024;-55
2021/12/29 06:02:19;;;;;;;12.23;8.57;;;5.00;93.00;;;;;;5094026;28;20059;-55
2021/12/29 06:04:46;;;;;;;11.88;7.85;;;5.00;93.00;;;;;;5112212;28;20036;-54
2021/12/29 06:07:17;;;;;;;11.90;8.07;;;5.00;92.90;;;;;;5111612;28;20076;-48
2021/12/29 06:09:43;;;;;;;12.00;8.45;;;4.90;92.90;;;;;;5112170;28;20472;-48
2021/12/29 06:12:10;;;;;;;14.63;7.95;;;4.90;92.90;;;;;;5112747;28;20088;-53
2021/12/29 06:14:37;;;;;;;15.32;8.73;;;4.90;92.90;;;;;;5107506;28;20032;-50
2021/12/29 06:17:04;;;;;;;33.97;9.70;;;4.90;92.80;;;;;;5108974;28;20035;-50
2021/12/29 06:19:31;;;;;;;18.05;10.40;;;4.90;92.90;;;;;;5110616;28;20024;-54
2021/12/29 06:21:58;;;;;;;15.80;8.98;;;4.90;92.90;;;;;;5102934;28;20043;-54
2021/12/29 06:24:25;;;;;;;14.98;9.15;;;4.90;92.90;;;;;;5075392;28;20039;-47
2021/12/29 06:26:53;;;;;;;18.20;9.10;;;4.90;92.80;;;;;;5089667;28;20031;-49
2021/12/29 06:29:18;;;;;;;18.35;10.57;;;4.90;92.80;;;;;;5109140;28;20040;-52
2021/12/29 06:31:47;;;;;;;29.75;12.57;;;4.90;92.90;;;;;;5097296;28;20031;-47
2021/12/29 06:34:14;;;;;;;20.67;10.63;;;4.90;92.80;;;;;;5115638;28;20047;-47
2021/12/29 06:36:41;;;;;;;22.50;11.75;;;4.80;92.80;;;;;;5115917;28;20107;-48
2021/12/29 06:39:08;;;;;;;30.55;13.52;;;4.80;92.80;;;;;;5109865;28;20106;-49
2021/12/29 06:41:35;;;;;;;31.95;14.80;;;4.80;92.80;;;;;;5116522;27;20039;-48
2021/12/29 06:44:05;;;;;;;30.95;15.07;;;4.80;92.90;;;;;;5106388;28;20075;-48
2021/12/29 06:46:34;;;;;;;32.50;14.27;;;4.90;92.90;;;;;;5105589;28;20440;-51
2021/12/29 06:49:01;;;;;;;34.35;16.00;;;4.90;92.80;;;;;;5106590;28;20356;-49
2021/12/29 06:51:28;;;;;;;26.73;14.95;;;4.90;92.80;;;;;;5108599;28;20737;-49
2021/12/29 06:53:55;;;;;;;40.40;17.80;;;4.80;92.80;;;;;;5111235;28;20054;-51
2021/12/29 06:56:22;;;;;;;33.45;16.20;;;4.80;92.80;;;;;;5102012;28;20402;-48
2021/12/29 06:58:48;;;;;;;35.58;16.63;;;4.90;92.90;;;;;;5110348;28;20023;-49
2021/12/29 07:01:16;;;;;;;30.80;14.45;;;4.90;92.90;;;;;;5115972;28;20372;-51
2021/12/29 07:03:43;;;;;;;32.03;14.20;;;4.90;92.90;;;;;;5094474;28;20137;-48
2021/12/29 07:06:11;;;;;;;32.35;15.07;;;4.90;92.90;;;;;;5092541;28;20035;-47
2021/12/29 07:08:40;;;;;;;29.35;14.65;;;4.90;92.90;;;;;;5112710;28;20054;-51
2021/12/29 07:11:07;;;;;;;28.27;13.80;;;4.90;92.90;;;;;;5109823;28;20028;-49
2021/12/29 07:13:37;;;;;;;30.52;15.45;;;4.90;92.80;;;;;;5094812;28;20028;-48
2021/12/29 07:16:04;;;;;;;39.50;16.75;;;4.90;92.80;;;;;;5109902;28;20073;-46
2021/12/29 07:18:31;;;;;;;37.63;17.35;;;4.90;92.70;;;;;;5105479;28;20031;-51
2021/12/29 07:21:00;;;;;;;37.67;17.33;;;4.90;92.80;;;;;;5088928;28;20040;-47
2021/12/29 07:23:27;;;;;;;35.85;18.42;;;4.90;92.70;;;;;;5097476;28;20030;-45
2021/12/29 07:25:54;;;;;;;45.63;20.60;;;4.90;92.70;;;;;;5101226;28;20063;-48
2021/12/29 07:28:19;;;;;;;37.58;20.05;;;4.90;92.60;;;;;;5110661;28;20103;-49
2021/12/29 07:30:49;;;;;;;37.35;19.73;;;4.90;92.70;;;;;;5097436;28;20600;-45
2021/12/29 07:33:16;;;;;;;43.67;20.40;;;4.90;92.70;;;;;;5116321;28;20341;-47
2021/12/29 07:35:42;;;;;;;41.17;19.10;;;4.90;92.70;;;;;;5116022;28;20120;-47
2021/12/29 07:38:09;;;;;;;33.28;17.70;;;4.90;92.70;;;;;;5106145;28;20115;-46
2021/12/29 07:40:36;;;;;;;37.88;21.17;;;5.00;92.70;;;;;;5092158;27;20046;-45
2021/12/29 07:43:03;;;;;;;40.50;22.10;;;5.00;92.60;;;;;;5099882;27;20051;-46
2021/12/29 07:45:31;;;;;;;39.28;20.75;;;4.90;92.60;;;;;;5107505;27;20577;-47
2021/12/29 07:48:04;;;;;;;47.83;21.13;;;4.90;92.60;;;;;;5111714;27;20028;-47
2021/12/29 07:50:31;;;;;;;43.70;20.75;;;4.90;92.60;;;;;;5097847;27;20188;-46
2021/12/29 07:52:58;;;;;;;49.47;19.90;;;4.90;92.60;;;;;;5088104;27;20027;-49
2021/12/29 07:55:27;;;;;;;46.80;22.63;;;4.90;92.60;;;;;;5106503;27;20753;-49
2021/12/29 07:57:53;;;;;;;42.80;19.90;;;4.90;92.60;;;;;;5110677;27;20360;-49
2021/12/29 08:00:20;;;;;;;44.35;20.50;;;4.90;92.60;;;;;;5097299;27;20065;-49
2021/12/29 08:02:47;;;;;;;38.58;19.48;;;4.90;92.60;;;;;;5106578;27;20037;-46
2021/12/29 08:05:14;;;;;;;48.33;22.00;;;5.00;92.60;;;;;;5106000;27;20066;-46
2021/12/29 08:07:41;;;;;;;51.03;24.48;;;4.90;92.60;;;;;;5105918;27;20073;-48
2021/12/29 08:10:11;;;;;;;49.72;22.55;;;4.90;92.60;;;;;;5097321;27;20185;-47
2021/12/29 08:12:38;;;;;;;47.78;22.83;;;5.00;92.60;;;;;;5103265;27;20036;-46
2021/12/29 08:15:06;;;;;;;43.33;20.65;;;5.00;92.50;;;;;;5105303;27;20032;-48
2021/12/29 08:17:33;;;;;;;52.80;23.80;;;5.00;92.60;;;;;;5089832;27;20031;-46
2021/12/29 08:20:01;;;;;;;42.78;20.60;;;5.00;92.50;;;;;;5101104;27;20031;-46
2021/12/29 08:22:28;;;;;;;43.03;19.75;;;5.00;92.50;;;;;;5096034;27;20054;-45
2021/12/29 08:24:57;;;;;;;43.47;20.23;;;5.00;92.50;;;;;;5084610;28;20062;-47
2021/12/29 08:27:26;;;;;;;38.28;20.45;;;5.00;92.40;;;;;;5080558;28;20035;-46
2021/12/29 08:29:53;;;;;;;44.88;20.33;;;5.00;92.50;;;;;;5101024;28;20040;-45
2021/12/29 08:32:20;;;;;;;44.22;20.90;;;5.00;92.50;;;;;;5091690;28;20044;-45
2021/12/29 08:34:50;;;;;;;54.28;21.10;;;5.10;92.50;;;;;;5106599;28;20407;-46
2021/12/29 08:37:17;;;;;;;47.15;21.85;;;5.10;92.50;;;;;;5077411;28;20132;-44
2021/12/29 08:39:42;;;;;;;53.20;22.85;;;5.10;92.40;;;;;;5107011;27;20036;-48
2021/12/29 08:42:10;;;;;;;56.15;23.17;;;5.20;92.50;;;;;;5103236;27;20467;-49
2021/12/29 08:44:37;;;;;;;44.05;22.27;;;5.20;92.40;;;;;;5105879;28;20074;-50
2021/12/29 08:47:05;;;;;;;47.10;21.08;;;5.20;92.40;;;;;;5088866;28;20036;-46
2021/12/29 08:49:32;;;;;;;51.47;24.23;;;5.20;92.40;;;;;;5094502;28;20373;-46
2021/12/29 08:52:01;;;;;;;49.22;21.67;;;5.20;92.30;;;;;;5101378;28;20553;-48
2021/12/29 08:54:34;;;;;;;53.25;22.05;;;5.10;92.30;;;;;;5088060;28;20041;-44
2021/12/29 08:57:06;;;;;;;47.10;23.88;;;5.20;92.20;;;;;;5083712;28;20112;-47
2021/12/29 08:59:32;;;;;;;49.95;23.67;;;5.10;92.20;;;;;;5088348;28;20035;-48
2021/12/29 09:01:58;;;;;;;50.83;23.25;;;5.10;92.30;;;;;;5094433;28;20032;-44
2021/12/29 09:04:28;;;;;;;49.85;23.40;;;5.20;92.30;;;;;;5111360;28;20040;-47
2021/12/29 09:07:01;;;;;;;55.15;23.17;;;5.20;92.20;;;;;;5095204;28;20043;-45
2021/12/29 09:09:28;;;;;;;47.20;22.52;;;5.20;92.30;;;;;;5093953;28;20051;-48
2021/12/29 09:11:54;;;;;;;42.50;21.83;;;5.20;92.20;;;;;;5097422;28;20036;-46
2021/12/29 09:14:21;;;;;;;49.40;24.67;;;5.20;92.20;;;;;;5098622;28;20027;-48
2021/12/29 09:16:48;;;;;;;50.60;24.63;;;5.20;92.20;;;;;;5108254;28;20034;-47
2021/12/29 09:19:14;;;;;;;51.45;24.58;;;5.20;92.20;;;;;;5088252;28;20028;-45
2021/12/29 09:21:51;;;;;;;53.72;23.52;;;5.30;92.30;;;;;;5100661;27;20038;-46
2021/12/29 09:24:18;;;;;;;67.63;26.05;;;5.30;92.30;;;;;;5094401;28;20062;-48
2021/12/29 09:26:45;;;;;;;45.10;24.30;;;5.40;92.20;;;;;;5094209;28;20072;-43
2021/12/29 09:29:12;;;;;;;48.72;22.70;;;5.40;92.30;;;;;;5076432;28;20452;-48
2021/12/29 09:31:39;;;;;;;60.78;26.70;;;5.40;92.20;;;;;;5120093;27;20038;-48
2021/12/29 09:34:09;;;;;;;56.97;25.55;;;5.40;92.20;;;;;;5113148;27;20095;-46
2021/12/29 09:36:36;;;;;;;45.55;22.60;;;5.30;92.20;;;;;;5105993;28;20035;-46
2021/12/29 09:39:03;;;;;;;64.25;24.67;;;5.40;92.30;;;;;;5093677;28;20032;-46
2021/12/29 09:41:31;;;;;;;53.90;24.45;;;5.40;92.40;;;;;;5106785;28;20111;-47
2021/12/29 09:43:59;;;;;;;53.70;22.70;;;5.40;92.40;;;;;;5092000;28;20131;-45
2021/12/29 09:46:29;;;;;;;47.65;22.00;;;5.40;92.40;;;;;;5094500;28;20088;-49
2021/12/29 09:48:59;;;;;;;49.25;23.23;;;5.50;92.50;;;;;;5093871;28;20035;-47
2021/12/29 09:51:28;;;;;;;53.88;24.13;;;5.60;92.50;;;;;;5122085;27;20417;-45
2021/12/29 09:53:54;;;;;;;58.13;26.42;;;5.70;92.50;;;;;;5101582;28;20042;-46
2021/12/29 09:56:22;;;;;;;55.42;24.73;;;5.70;92.50;;;;;;5113604;28;20107;-45
2021/12/29 09:58:51;;;;;;;49.58;21.65;;;5.80;92.50;;;;;;5094241;28;20618;-43
2021/12/29 10:01:20;;;;;;;56.17;23.13;;;5.90;92.40;;;;;;5090451;28;20108;-44
2021/12/29 10:03:47;;;;;;;45.03;21.25;;;5.90;92.20;;;;;;5094897;28;20043;-46
2021/12/29 10:06:15;;;;;;;48.60;22.67;;;5.90;92.40;;;;;;5101879;28;20032;-44
2021/12/29 10:08:47;;;;;;;51.63;23.13;;;6.00;92.40;;;;;;5084081;28;20059;-43
2021/12/29 10:11:32;;;;;;;43.55;20.90;;;6.00;92.20;;;;;;5092924;28;20081;-47
2021/12/29 10:14:01;;;;;;;47.15;22.42;;;6.10;92.30;;;;;;5108546;28;20020;-48
2021/12/29 10:16:29;;;;;;;44.55;21.67;;;6.20;92.40;;;;;;5113384;28;20040;-44
2021/12/29 10:19:12;;;;;;;40.58;19.52;;;6.20;92.30;;;;;;5109051;28;20036;-47
2021/12/29 10:21:49;;;;;;;48.05;22.30;;;6.30;92.30;;;;;;5123232;27;20043;-44
2021/12/29 10:24:20;;;;;;;47.88;22.20;;;6.30;92.20;;;;;;5101377;27;20032;-46
2021/12/29 10:26:49;;;;;;;51.80;23.23;;;6.20;91.90;;;;;;5093197;28;20503;-44
2021/12/29 10:29:20;;;;;;;50.95;25.50;;;6.20;91.80;;;;;;5093280;28;20068;-48
2021/12/29 10:31:53;;;;;;;47.15;22.85;;;6.20;91.90;;;;;;5096135;28;20042;-47
2021/12/29 10:34:38;;;;;;;55.25;26.67;;;6.20;91.90;;;;;;5111935;28;20063;-47
2021/12/29 10:37:12;;;;;;;48.15;28.00;;;6.40;92.00;;;;;;5093912;28;20039;-47
2021/12/29 10:39:43;;;;;;;61.10;29.27;;;6.30;91.80;;;;;;5093367;28;20043;-46
2021/12/29 10:42:21;;;;;;;60.05;29.35;;;6.30;91.80;;;;;;5079441;28;20073;-45
2021/12/29 10:44:56;;;;;;;55.42;26.27;;;6.40;91.70;;;;;;5108193;28;20098;-45
2021/12/29 10:47:45;;;;;;;50.60;26.05;;;6.40;91.80;;;;;;5075015;28;20066;-45
2021/12/29 10:50:14;;;;;;;47.08;21.85;;;6.40;91.80;;;;;;5081472;28;20073;-45
2021/12/29 10:52:50;;;;;;;40.67;20.05;;;6.40;91.90;;;;;;5106496;28;20445;-43
2021/12/29 10:55:38;;;;;;;38.97;19.95;;;6.50;91.80;;;;;;5098633;28;20540;-43
2021/12/29 10:58:24;;;;;;;42.60;21.17;;;6.50;91.80;;;;;;5108593;28;20479;-48
2021/12/29 11:01:10;;;;;;;48.85;22.08;;;6.50;91.80;;;;;;5105504;28;20024;-43
2021/12/29 11:03:49;;;;;;;45.83;22.77;;;6.50;91.70;;;;;;5095079;28;20032;-45
2021/12/29 11:06:23;;;;;;;44.38;21.48;;;6.50;91.70;;;;;;5099590;28;20040;-45
2021/12/29 11:09:10;;;;;;;46.00;22.08;;;6.50;91.70;;;;;;5087094;28;20424;-44
2021/12/29 11:11:42;;;;;;;45.60;22.42;;;6.60;91.70;;;;;;5111856;28;20097;-45
2021/12/29 11:14:17;;;;;;;44.22;21.70;;;6.60;91.70;;;;;;5084210;28;20028;-46
2021/12/29 11:16:45;;;;;;;43.10;21.25;;;6.60;91.70;;;;;;5112121;28;20096;-45
2021/12/29 11:19:12;;;;;;;40.80;20.75;;;6.60;91.80;;;;;;5106111;28;20031;-47
2021/12/29 11:21:42;;;;;;;42.88;20.17;;;6.60;91.70;;;;;;5116142;28;20051;-45
2021/12/29 11:24:24;;;;;;;40.95;20.85;;;6.60;91.60;;;;;;5093600;28;20032;-45
2021/12/29 11:26:51;;;;;;;41.72;20.10;;;6.60;91.60;;;;;;5106483;28;20066;-47
2021/12/29 11:29:21;;;;;;;46.28;22.70;;;6.60;91.60;;;;;;5107986;28;20089;-47
2021/12/29 11:32:07;;;;;;;45.65;21.98;;;6.60;91.70;;;;;;5095907;28;20337;-45
2021/12/29 11:34:34;;;;;;;47.63;21.95;;;6.60;91.80;;;;;;5106986;28;20329;-45
2021/12/29 11:37:18;;;;;;;48.53;22.05;;;6.60;91.80;;;;;;5103414;28;20479;-48
2021/12/29 11:39:46;;;;;;;46.08;21.05;;;6.60;91.70;;;;;;5102781;28;20264;-47
2021/12/29 11:42:13;;;;;;;43.08;21.75;;;6.60;91.90;;;;;;5081722;28;20044;-43
2021/12/29 11:44:40;;;;;;;44.65;22.20;;;6.60;92.00;;;;;;5109318;28;20034;-43
2021/12/29 11:47:09;;;;;;;48.20;22.67;;;6.70;92.00;;;;;;5078936;28;20556;-46
2021/12/29 11:49:36;;;;;;;45.95;22.48;;;6.60;92.00;;;;;;5112930;28;20036;-44
2021/12/29 11:52:19;;;;;;;47.35;20.80;;;6.50;91.90;;;;;;5105865;28;20030;-44
2021/12/29 11:55:12;;;;;;;40.50;20.30;;;6.60;92.00;;;;;;5117483;27;20019;-45
2021/12/29 11:57:40;;;;;;;53.50;22.48;;;6.50;92.10;;;;;;5100992;28;20036;-44
2021/12/29 12:00:19;;;;;;;46.53;19.17;;;6.50;92.00;;;;;;5087377;28;20034;-46
2021/12/29 12:02:52;;;;;;;43.38;19.55;;;6.50;92.10;;;;;;5088723;28;20584;-45
2021/12/29 12:05:34;;;;;;;55.20;22.90;;;6.60;92.20;;;;;;5105246;28;20386;-43
2021/12/29 12:08:23;;;;;;;50.80;22.80;;;6.60;92.20;;;;;;5106799;28;20315;-43
2021/12/29 12:10:51;;;;;;;44.70;20.83;;;6.60;92.30;;;;;;5108425;27;20077;-45
2021/12/29 12:13:26;;;;;;;49.35;22.17;;;6.80;92.40;;;;;;5097369;28;20346;-46
2021/12/29 12:16:09;;;;;;;49.38;20.73;;;6.80;92.30;;;;;;5113256;28;20073;-44
2021/12/29 12:18:51;;;;;;;44.70;20.40;;;6.90;92.40;;;;;;5107853;28;20035;-44
2021/12/29 12:21:39;;;;;;;52.50;22.15;;;7.00;92.40;;;;;;5106357;28;20047;-45
2021/12/29 12:24:33;;;;;;;47.25;21.83;;;7.00;92.10;;;;;;5114775;27;20054;-45
2021/12/29 12:27:07;;;;;;;50.80;20.48;;;6.90;92.10;;;;;;5105429;28;20064;-43
2021/12/29 12:29:37;;;;;;;54.75;21.50;;;7.00;92.20;;;;;;5093541;28;20073;-45
2021/12/29 12:32:13;;;;;;;53.45;21.98;;;6.90;92.10;;;;;;5090878;28;20047;-46
2021/12/29 12:34:58;;;;;;;52.13;22.20;;;6.90;92.10;;;;;;5094760;28;20480;-45
2021/12/29 12:37:37;;;;;;;50.30;20.55;;;6.90;92.20;;;;;;5095440;28;20567;-47
2021/12/29 12:40:23;;;;;;;55.30;22.33;;;6.90;92.20;;;;;;5079856;28;20027;-45
2021/12/29 12:43:11;;;;;;;56.65;23.08;;;6.90;92.20;;;;;;5099813;28;20047;-44
2021/12/29 12:45:41;;;;;;;57.55;22.30;;;7.00;92.30;;;;;;5098109;28;20023;-43
2021/12/29 12:48:08;;;;;;;;;;;7.00;92.30;;;;;;5095688;28;20468;-43
2021/12/29 12:50:36;;;;;;;54.47;21.20;;;7.00;92.30;;;;;;5076897;28;20334;-45
2021/12/29 12:53:03;;;;;;;53.75;21.50;;;6.90;92.30;;;;;;5077147;28;20103;-45
2021/12/29 12:55:32;;;;;;;48.25;19.65;;;7.00;92.50;;;;;;5076779;28;20114;-46
2021/12/29 12:58:12;;;;;;;50.42;22.25;;;7.00;92.50;;;;;;5115987;27;20108;-43
2021/12/29 13:00:45;;;;;;;46.17;19.67;;;7.00;92.50;;;;;;5094362;28;20032;-46